Time;durP1;ratioP1;P1;durP2;ratioP2;P2;SDS_P1;SDS_P2;PMS_P1;PMS_P2;Temp;Humidity;BMP_temperature;BMP_pressure;BME280_temperature;BME280_humidity;BME280_pressure;Samples;Min_cycle;Max_cycle;Signal;HPM_P1;HPM_P2
2023/10/23 00:01:43;;;;;;;4.50;4.30;;;;;;;11.57;100.00;100761.69;6057311;23;20496;-74
2023/10/23 00:04:10;;;;;;;4.63;4.32;;;;;;;11.35;100.00;100732.28;6048046;23;20034;-74
2023/10/23 00:06:37;;;;;;;4.60;4.40;;;;;;;11.57;100.00;100756.44;6056023;23;20031;-74
2023/10/23 00:09:03;;;;;;;5.93;5.63;;;;;;;11.48;100.00;100730.66;6045826;23;20031;-73
2023/10/23 00:11:30;;;;;;;7.72;4.85;;;;;;;11.17;100.00;100676.34;6029172;23;20036;-73
2023/10/23 00:13:57;;;;;;;4.80;4.60;;;;;;;11.47;100.00;100723.72;6045751;23;20042;-75
2023/10/23 00:16:24;;;;;;;4.97;4.40;;;;;;;11.38;100.00;100719.84;6058382;23;20021;-73
2023/10/23 00:18:53;;;;;;;4.90;4.60;;;;;;;11.14;100.00;100713.28;6045720;23;20038;-73
2023/10/23 00:21:20;;;;;;;5.60;5.30;;;;;;;10.73;100.00;100664.69;6020301;23;20028;-73
2023/10/23 00:23:46;;;;;;;4.60;4.40;;;;;;;10.95;100.00;100708.19;6045713;23;20094;-74
2023/10/23 00:26:13;;;;;;;4.90;4.70;;;;;;;10.41;100.00;100650.66;6059793;23;20021;-74
2023/10/23 00:28:40;;;;;;;5.07;4.78;;;;;;;10.70;100.00;100714.72;6058072;23;20029;-74
2023/10/23 00:31:06;;;;;;;6.20;5.80;;;;;;;10.72;100.00;100731.25;6026523;23;20026;-74
2023/10/23 00:33:33;;;;;;;7.30;4.90;;;;;;;10.37;100.00;100694.56;6045576;23;20046;-73
2023/10/23 00:35:59;;;;;;;4.97;4.75;;;;;;;10.59;100.00;100748.56;6053034;23;20014;-74
2023/10/23 00:38:28;;;;;;;5.10;4.80;;;;;;;10.06;100.00;100679.47;6050475;23;21192;-74
2023/10/23 00:40:55;;;;;;;4.57;4.38;;;;;;;10.44;100.00;100755.41;6058954;23;20671;-74
2023/10/23 00:43:24;;;;;;;4.80;4.50;;;;;;;10.33;100.00;100763.00;6054918;23;20018;-73
2023/10/23 00:45:58;;;;;;;4.70;4.50;;;;;;;10.08;100.00;100737.09;6052804;23;20129;-73
2023/10/23 00:48:25;;;;;;;4.72;4.53;;;;;;;9.78;100.00;100700.97;6049315;23;20565;-73
2023/10/23 00:50:57;;;;;;;4.80;4.60;;;;;;;10.19;100.00;100779.38;6048941;23;20038;-73
2023/10/23 00:53:27;;;;;;;4.50;4.30;;;;;;;10.00;100.00;100742.72;6027916;23;20363;-73
2023/10/23 00:55:56;;;;;;;4.90;4.60;;;;;;;10.14;100.00;100781.38;6060245;23;20092;-74
2023/10/23 00:58:26;;;;;;;4.95;4.68;;;;;;;9.91;100.00;100766.78;6024267;23;20216;-74
2023/10/23 01:00:58;;;;;;;6.78;4.60;;;;;;;10.03;100.00;100776.66;6049306;23;20079;-73
2023/10/23 01:03:25;;;;;;;5.05;4.75;;;;;;;10.16;100.00;100804.00;6058118;23;20034;-73
2023/10/23 01:05:55;;;;;;;5.22;4.93;;;;;;;9.93;100.00;100772.78;6058514;23;20029;-73
2023/10/23 01:08:22;;;;;;;4.70;4.50;;;;;;;9.73;100.00;100727.41;6022148;23;20134;-74
2023/10/23 01:10:49;;;;;;;4.75;4.55;;;;;;;9.84;100.00;100739.16;6061320;23;20029;-74
2023/10/23 01:13:16;;;;;;;6.25;5.93;;;;;;;9.83;100.00;100753.19;6054064;23;20122;-73
2023/10/23 01:15:42;;;;;;;4.88;4.68;;;;;;;9.41;100.00;100687.03;6027128;23;20413;-74
2023/10/23 01:18:09;;;;;;;5.88;4.55;;;;;;;10.17;100.00;100802.22;6023862;23;20472;-75
2023/10/23 01:20:35;;;;;;;5.00;4.70;;;;;;;9.94;100.00;100792.81;6032919;23;20025;-73
2023/10/23 01:23:02;;;;;;;6.00;5.70;;;;;;;9.92;100.00;100798.16;6022784;23;20042;-72
2023/10/23 01:25:30;;;;;;;5.03;4.75;;;;;;;9.96;100.00;100797.09;6022890;23;20649;-73
2023/10/23 01:27:58;;;;;;;4.82;4.60;;;;;;;9.67;100.00;100769.63;6059683;23;20606;-73
2023/10/23 01:30:25;;;;;;;4.82;4.63;;;;;;;9.95;100.00;100805.03;6049839;23;20076;-72
2023/10/23 01:32:51;;;;;;;5.45;5.05;;;;;;;9.87;100.00;100810.63;6065054;23;20054;-73
2023/10/23 01:35:18;;;;;;;4.82;4.53;;;;;;;9.25;100.00;100723.56;6051772;23;20017;-73
2023/10/23 01:37:45;;;;;;;5.13;4.82;;;;;;;9.26;100.00;100735.75;6057587;23;20069;-74
2023/10/23 01:40:15;;;;;;;5.15;4.85;;;;;;;9.63;100.00;100810.00;6054723;23;20093;-75
2023/10/23 01:42:42;;;;;;;4.85;4.60;;;;;;;9.14;100.00;100734.56;6058374;23;20026;-73
2023/10/23 01:45:09;;;;;;;6.47;6.15;;;;;;;9.42;100.00;100793.53;6057821;23;20026;-73
2023/10/23 01:47:36;;;;;;;4.60;4.40;;;;;;;9.37;100.00;100793.72;6024424;23;20033;-72
2023/10/23 01:50:03;;;;;;;4.80;4.60;;;;;;;9.36;100.00;100776.31;6036267;23;20014;-73
2023/10/23 01:52:29;;;;;;;5.03;4.72;;;;;;;9.50;100.00;100783.53;6036076;23;20034;-73
2023/10/23 01:54:59;;;;;;;4.78;4.57;;;;;;;9.42;100.00;100804.00;6049362;23;20081;-73
2023/10/23 01:57:25;;;;;;;4.72;4.43;;;;;;;9.03;100.00;100720.25;6056147;23;20096;-73
2023/10/23 01:59:52;;;;;;;5.22;4.88;;;;;;;9.50;100.00;100804.50;6054818;23;20018;-72
2023/10/23 02:02:19;;;;;;;4.40;4.20;;;;;;;9.41;100.00;100797.06;6060143;23;20026;-73
2023/10/23 02:04:45;;;;;;;4.53;4.32;;;;;;;9.21;100.00;100768.31;6027331;23;20090;-73
2023/10/23 02:07:12;;;;;;;6.55;6.15;;;;;;;9.52;100.00;100812.25;6048482;23;20018;-73
2023/10/23 02:09:38;;;;;;;4.50;4.30;;;;;;;8.81;100.00;100684.56;6025794;23;20506;-73
2023/10/23 02:12:05;;;;;;;4.72;4.43;;;;;;;9.14;100.00;100745.03;6028188;23;20022;-73
2023/10/23 02:14:31;;;;;;;4.43;4.22;;;;;;;9.31;100.00;100777.44;6046677;23;20026;-73
2023/10/23 02:16:58;;;;;;;4.68;4.47;;;;;;;8.85;100.00;100711.47;6025610;23;20091;-73
2023/10/23 02:19:25;;;;;;;4.60;4.40;;;;;;;9.28;100.00;100782.81;6047963;23;20051;-73
2023/10/23 02:21:51;;;;;;;4.45;4.25;;;;;;;8.65;100.00;100680.94;6030632;23;20034;-73
2023/10/23 02:24:21;;;;;;;4.63;4.43;;;;;;;9.07;100.00;100759.31;5998815;23;20026;-74
2023/10/23 02:26:48;;;;;;;4.60;4.40;;;;;;;8.72;100.00;100698.06;6052242;23;20099;-74
2023/10/23 02:29:15;;;;;;;5.93;5.63;;;;;;;8.76;100.00;100713.56;6028564;23;20034;-73
2023/10/23 02:31:41;;;;;;;4.60;4.30;;;;;;;9.13;100.00;100768.66;6049419;23;20117;-73
2023/10/23 02:34:08;;;;;;;4.50;4.30;;;;;;;7.68;100.00;100523.91;6025610;23;20042;-73
2023/10/23 02:36:34;;;;;;;4.60;4.40;;;;;;;9.00;100.00;100755.28;6027670;23;20030;-73
2023/10/23 02:39:01;;;;;;;5.15;4.88;;;;;;;9.06;100.00;100773.31;6057722;23;20090;-73
2023/10/23 02:41:29;;;;;;;4.60;4.40;;;;;;;8.96;100.00;100778.13;6027843;23;20086;-72
2023/10/23 02:43:56;;;;;;;4.30;4.10;;;;;;;8.86;100.00;100782.06;6057086;23;20040;-73
2023/10/23 02:46:22;;;;;;;4.53;4.32;;;;;;;8.79;100.00;100778.84;6056508;23;20015;-73
2023/10/23 02:48:50;;;;;;;4.60;4.40;;;;;;;8.66;100.00;100767.22;6053624;23;20052;-74
2023/10/23 02:51:17;;;;;;;5.72;5.40;;;;;;;8.82;100.00;100795.31;6034028;23;20014;-73
2023/10/23 02:53:44;;;;;;;4.60;4.40;;;;;;;8.79;100.00;100797.16;6052962;23;20506;-73
2023/10/23 02:56:13;;;;;;;4.60;4.30;;;;;;;8.77;100.00;100798.97;6060835;23;20580;-73
2023/10/23 02:58:40;;;;;;;4.60;4.40;;;;;;;8.63;100.00;100787.44;6049908;23;20018;-74
2023/10/23 03:01:17;;;;;;;5.97;5.68;;;;;;;8.28;100.00;100734.78;6054523;23;20078;-73
2023/10/23 03:03:44;;;;;;;4.47;4.28;;;;;;;8.18;100.00;100721.28;6022784;23;20056;-74
2023/10/23 03:06:11;;;;;;;4.70;4.50;;;;;;;8.50;100.00;100780.09;5993316;23;20027;-74
2023/10/23 03:08:37;;;;;;;4.30;4.10;;;;;;;8.78;100.00;100820.78;6055009;23;20625;-74
2023/10/23 03:11:05;;;;;;;6.97;6.05;;;;;;;8.58;100.00;100787.63;6058242;23;20021;-73
2023/10/23 03:13:32;;;;;;;4.20;4.00;;;;;;;8.93;100.00;100830.59;6027673;23;20086;-73
2023/10/23 03:15:58;;;;;;;4.43;4.22;;;;;;;8.76;100.00;100786.00;6053911;23;20038;-73
2023/10/23 03:18:25;;;;;;;4.72;4.40;;;;;;;8.96;100.00;100821.72;6039539;23;20617;-74
2023/10/23 03:20:52;;;;;;;4.38;4.18;;;;;;;8.04;100.00;100684.38;6059175;23;20084;-74
2023/10/23 03:23:18;;;;;;;5.35;4.95;;;;;;;7.99;100.00;100688.03;6046491;23;20038;-74
2023/10/23 03:25:47;;;;;;;4.70;4.47;;;;;;;8.09;100.00;100706.81;6056546;23;20010;-74
2023/10/23 03:28:13;;;;;;;4.55;4.35;;;;;;;8.65;100.00;100807.38;6052578;23;20085;-73
2023/10/23 03:30:40;;;;;;;4.40;4.20;;;;;;;8.50;100.00;100805.38;6032746;23;20169;-74
2023/10/23 03:33:06;;;;;;;5.97;5.68;;;;;;;8.30;100.00;100770.44;6049511;23;20034;-74
2023/10/23 03:35:35;;;;;;;4.40;4.20;;;;;;;8.63;100.00;100822.28;6054797;23;20034;-74
2023/10/23 03:38:01;;;;;;;9.48;4.65;;;;;;;8.41;100.00;100793.56;6051270;23;20034;-73
2023/10/23 03:40:28;;;;;;;4.43;4.22;;;;;;;8.48;100.00;100809.81;6058982;23;20018;-74
2023/10/23 03:42:54;;;;;;;4.55;4.35;;;;;;;8.28;100.00;100793.19;6025378;23;20477;-74
2023/10/23 03:45:21;;;;;;;5.28;4.97;;;;;;;8.49;100.00;100841.16;6030419;23;20049;-74
2023/10/23 03:47:47;;;;;;;4.30;4.10;;;;;;;8.48;100.00;100841.22;6055509;23;20106;-73
2023/10/23 03:50:14;;;;;;;4.40;4.20;;;;;;;7.82;100.00;100734.94;6052511;23;20848;-74
2023/10/23 03:52:40;;;;;;;5.38;4.97;;;;;;;8.51;100.00;100852.41;6052640;23;20085;-74
2023/10/23 03:55:07;;;;;;;6.40;6.00;;;;;;;8.12;100.00;100792.97;6051085;23;20540;-74
2023/10/23 03:57:34;;;;;;;4.38;4.18;;;;;;;8.50;100.00;100865.53;6022630;23;20055;-74
2023/10/23 04:00:01;;;;;;;4.90;4.60;;;;;;;8.12;100.00;100803.41;6044519;23;20015;-74
2023/10/23 04:02:27;;;;;;;4.53;4.32;;;;;;;8.42;100.00;100872.84;5996413;23;20034;-74
2023/10/23 04:04:54;;;;;;;5.55;5.05;;;;;;;8.42;100.00;100872.84;6058119;23;20018;-74
2023/10/23 04:07:21;;;;;;;4.47;4.28;;;;;;;7.67;100.00;100774.72;6041541;23;20022;-73
2023/10/23 04:09:47;;;;;;;4.15;3.95;;;;;;;8.29;100.00;100873.31;6059961;23;20403;-74
2023/10/23 04:12:14;;;;;;;5.00;4.70;;;;;;;7.96;100.00;100841.53;6035574;23;20016;-73
2023/10/23 04:14:44;;;;;;;5.70;5.30;;;;;;;8.19;100.00;100857.13;6020999;23;20098;-74
2023/10/23 04:17:11;;;;;;;7.57;7.18;;;;;;;7.72;100.00;100776.25;6015606;23;20018;-74
2023/10/23 04:19:41;;;;;;;4.80;4.60;;;;;;;7.51;100.00;100743.97;6058348;23;20033;-74
2023/10/23 04:22:08;;;;;;;4.45;4.25;;;;;;;7.71;100.00;100784.13;6050086;23;20054;-75
2023/10/23 04:24:34;;;;;;;4.85;4.65;;;;;;;8.23;100.00;100891.84;6048072;23;20093;-74
2023/10/23 04:27:01;;;;;;;5.28;4.88;;;;;;;7.63;100.00;100807.09;6020587;23;20011;-74
2023/10/23 04:29:27;;;;;;;5.05;4.70;;;;;;;8.23;100.00;100896.25;6030632;23;20029;-74
2023/10/23 04:31:54;;;;;;;4.80;4.57;;;;;;;8.08;100.00;100889.84;6045618;23;20011;-73
2023/10/23 04:34:23;;;;;;;6.22;4.85;;;;;;;8.19;100.00;100901.59;6052543;23;20158;-73
2023/10/23 04:36:49;;;;;;;4.80;4.50;;;;;;;8.12;100.00;100883.59;6047292;23;20025;-75
2023/10/23 04:39:16;;;;;;;6.00;5.70;;;;;;;8.31;100.00;100907.25;6055212;23;20036;-74
2023/10/23 04:41:42;;;;;;;4.57;4.28;;;;;;;7.78;100.00;100819.56;6053222;23;20169;-74
2023/10/23 04:44:08;;;;;;;5.00;4.70;;;;;;;7.92;100.00;100827.72;6064196;23;20038;-74
2023/10/23 04:46:35;;;;;;;4.80;4.50;;;;;;;8.22;100.00;100890.19;6051066;23;20029;-73
2023/10/23 04:49:02;;;;;;;5.68;5.32;;;;;;;7.81;100.00;100810.75;6033781;23;20021;-74
2023/10/23 04:51:28;;;;;;;5.20;4.90;;;;;;;7.88;100.00;100836.59;6050628;23;20032;-73
2023/10/23 04:53:55;;;;;;;5.25;4.95;;;;;;;8.14;100.00;100893.09;6029631;23;20026;-72
2023/10/23 04:56:21;;;;;;;4.47;4.28;;;;;;;7.54;100.00;100801.31;6023426;23;20146;-74
2023/10/23 04:58:48;;;;;;;4.80;4.50;;;;;;;7.97;100.00;100872.81;6052341;23;20034;-72
2023/10/23 05:01:16;;;;;;;6.25;5.95;;;;;;;7.93;100.00;100883.44;6059769;23;20049;-75
2023/10/23 05:03:42;;;;;;;4.90;4.60;;;;;;;7.78;100.00;100875.28;6032359;23;20034;-74
2023/10/23 05:06:09;;;;;;;5.47;5.15;;;;;;;7.73;100.00;100876.38;6058548;23;20026;-73
2023/10/23 05:08:35;;;;;;;4.93;4.63;;;;;;;8.03;100.00;100915.31;6051221;23;20042;-73
2023/10/23 05:11:08;;;;;;;5.43;5.15;;;;;;;7.73;100.00;100855.47;6053516;23;20026;-73
2023/10/23 05:13:35;;;;;;;4.45;4.25;;;;;;;7.52;100.00;100818.81;6026882;23;20057;-74
2023/10/23 05:16:05;;;;;;;4.70;4.40;;;;;;;8.07;100.00;100880.31;6026215;23;20674;-73
2023/10/23 05:18:33;;;;;;;4.60;4.40;;;;;;;7.95;100.00;100871.19;6049006;23;20036;-73
2023/10/23 05:21:10;;;;;;;4.90;4.57;;;;;;;7.63;100.00;100804.47;6056060;23;20367;-74
2023/10/23 05:23:40;;;;;;;5.78;5.05;;;;;;;8.16;100.00;100896.50;6017832;23;20088;-73
2023/10/23 05:26:11;;;;;;;5.35;5.05;;;;;;;8.24;100.00;100890.09;6040111;23;20079;-76
2023/10/23 05:28:40;;;;;;;6.22;4.63;;;;;;;8.11;100.00;100874.03;5997122;23;20035;-74
2023/10/23 05:31:08;;;;;;;6.10;5.80;;;;;;;7.90;100.00;100823.47;6050156;23;20026;-72
2023/10/23 05:33:35;;;;;;;5.03;4.65;;;;;;;7.45;100.00;100746.81;6035220;23;20489;-73
2023/10/23 05:36:07;;;;;;;4.40;4.20;;;;;;;8.11;100.00;100863.59;6049484;23;20955;-74
2023/10/23 05:38:33;;;;;;;6.40;4.80;;;;;;;8.05;100.00;100869.06;5998807;23;20026;-73
2023/10/23 05:41:00;;;;;;;5.00;4.70;;;;;;;7.49;100.00;100784.13;6050084;23;20029;-71
2023/10/23 05:43:27;;;;;;;4.60;4.40;;;;;;;7.94;100.00;100862.50;6014552;23;20452;-73
2023/10/23 05:45:54;;;;;;;5.40;4.90;;;;;;;7.84;100.00;100868.97;6029069;23;20026;-72
2023/10/23 05:48:21;;;;;;;4.97;4.63;;;;;;;7.98;100.00;100865.84;6006338;23;20037;-72
2023/10/23 05:51:02;;;;;;;4.88;4.57;;;;;;;7.98;100.00;100892.81;6029185;23;20109;-74
2023/10/23 05:53:29;;;;;;;4.32;4.13;;;;;;;7.92;100.00;100893.06;6014402;23;20043;-75
2023/10/23 05:56:06;;;;;;;8.80;5.55;;;;;;;7.54;100.00;100845.72;6057303;23;20026;-75
2023/10/23 05:58:33;;;;;;;5.57;5.18;;;;;;;7.66;100.00;100878.38;6055140;23;20030;-75
2023/10/23 06:01:04;;;;;;;5.05;4.72;;;;;;;6.92;100.00;100774.00;6050320;23;20038;-74
2023/10/23 06:03:31;;;;;;;4.70;4.40;;;;;;;7.59;100.00;100874.25;6017801;23;20033;-74
2023/10/23 06:05:59;;;;;;;4.97;4.68;;;;;;;6.95;100.00;100765.22;6056664;23;20026;-75
2023/10/23 06:08:32;;;;;;;;;;;;;;;7.66;100.00;100896.66;6051834;23;20088;-73
2023/10/23 06:11:02;;;;;;;6.03;5.43;;;;;;;6.53;100.00;100705.84;6018351;23;19910;-72
2023/10/23 06:13:29;;;;;;;5.13;4.82;;;;;;;6.82;100.00;100761.38;6056349;23;20038;-75
2023/10/23 06:16:04;;;;;;;5.15;4.80;;;;;;;7.75;100.00;100904.13;6060584;23;20022;-73
2023/10/23 06:18:41;;;;;;;5.60;5.10;;;;;;;7.83;100.00;100910.84;6048107;23;20091;-74
2023/10/23 06:21:08;;;;;;;9.90;6.80;;;;;;;7.35;100.00;100847.28;6020101;23;20032;-76
2023/10/23 06:23:39;;;;;;;5.90;5.35;;;;;;;7.76;100.00;100913.69;6050434;23;20770;-74
2023/10/23 06:26:08;;;;;;;5.20;4.82;;;;;;;7.62;100.00;100892.44;6056707;23;20101;-73
2023/10/23 06:28:39;;;;;;;4.50;4.30;;;;;;;7.22;100.00;100796.41;6059458;23;20053;-74
2023/10/23 06:31:10;;;;;;;6.55;6.05;;;;;;;8.01;100.00;100924.97;6021156;23;20034;-71
2023/10/23 06:33:42;;;;;;;4.60;4.40;;;;;;;7.66;100.00;100856.59;6056319;23;20026;-73
2023/10/23 06:36:12;;;;;;;5.25;4.72;;;;;;;7.98;100.00;100905.88;6057071;23;20044;-71
2023/10/23 06:38:41;;;;;;;5.65;4.97;;;;;;;7.68;100.00;100844.34;6060242;23;20021;-72
2023/10/23 06:41:08;;;;;;;6.82;6.43;;;;;;;6.94;100.00;100722.63;6051285;23;20182;-71
2023/10/23 06:43:37;;;;;;;5.63;5.22;;;;;;;8.22;100.00;100928.50;6033633;23;20464;-75
2023/10/23 06:46:04;;;;;;;4.68;4.47;;;;;;;6.73;100.00;100684.28;6028224;23;20018;-72
2023/10/23 06:48:31;;;;;;;18.38;5.68;;;;;;;7.54;100.00;100832.66;6054093;23;20520;-72
2023/10/23 06:51:00;;;;;;;5.28;4.85;;;;;;;7.07;100.00;100725.63;6001225;23;20479;-76
2023/10/23 06:53:27;;;;;;;4.45;4.25;;;;;;;8.32;100.00;100930.72;6045356;23;20505;-75
2023/10/23 06:55:55;;;;;;;4.97;4.57;;;;;;;8.44;100.00;100931.19;6025346;23;20108;-75
2023/10/23 06:58:22;;;;;;;5.88;5.45;;;;;;;8.46;100.00;100932.84;6050315;23;20745;-75
2023/10/23 07:00:51;;;;;;;4.43;4.20;;;;;;;7.88;100.00;100833.97;6009775;23;20081;-76
2023/10/23 07:03:21;;;;;;;5.72;5.32;;;;;;;8.15;100.00;100883.47;6058993;23;20041;-74
2023/10/23 07:05:47;;;;;;;5.07;4.68;;;;;;;8.37;100.00;100917.47;6057857;23;20697;-75
2023/10/23 07:08:15;;;;;;;5.18;4.78;;;;;;;8.63;100.00;100945.22;6056176;23;20053;-75
2023/10/23 07:10:41;;;;;;;5.78;5.28;;;;;;;8.66;100.00;100944.25;6057659;23;20037;-75
2023/10/23 07:13:07;;;;;;;6.38;5.97;;;;;;;7.79;100.00;100821.25;6056859;23;20662;-76
2023/10/23 07:15:51;;;;;;;5.07;4.60;;;;;;;7.96;100.00;100845.00;6052311;23;20034;-77
2023/10/23 07:18:21;;;;;;;6.28;5.88;;;;;;;7.65;100.00;100803.50;6032993;23;20534;-76
2023/10/23 07:20:59;;;;;;;4.95;4.45;;;;;;;8.28;100.00;100900.38;6053685;23;20045;-75
2023/10/23 07:23:29;;;;;;;5.40;5.07;;;;;;;8.71;100.00;100956.25;6054941;23;20068;-76
2023/10/23 07:25:59;;;;;;;5.63;5.13;;;;;;;8.77;100.00;100963.84;6052324;23;20085;-76
2023/10/23 07:28:26;;;;;;;5.50;5.00;;;;;;;7.84;100.00;100806.28;5997570;23;20031;-76
2023/10/23 07:30:52;;;;;;;5.13;4.68;;;;;;;8.91;100.00;100965.06;6055386;23;20034;-76
2023/10/23 07:33:22;;;;;;;4.88;4.68;;;;;;;8.61;100.00;100907.81;6023186;23;20246;-76
2023/10/23 07:35:48;;;;;;;5.45;5.03;;;;;;;8.46;100.00;100859.59;6051922;23;20044;-76
2023/10/23 07:38:19;;;;;;;6.20;5.15;;;;;;;9.19;100.00;100965.59;6032614;23;20059;-73
2023/10/23 07:40:48;;;;;;;5.43;5.03;;;;;;;9.24;100.00;100967.16;6026568;23;20481;-71
2023/10/23 07:43:15;;;;;;;6.82;6.43;;;;;;;9.26;100.00;100963.59;6057022;23;20021;-73
2023/10/23 07:45:44;;;;;;;5.68;5.28;;;;;;;9.34;100.00;100965.88;6032751;23;20485;-72
2023/10/23 07:48:12;;;;;;;5.32;4.93;;;;;;;8.35;100.00;100791.16;6045492;23;20033;-73
2023/10/23 07:50:39;;;;;;;6.32;5.82;;;;;;;8.10;100.00;100718.13;6034310;23;20053;-71
2023/10/23 07:53:07;;;;;;;7.55;6.25;;;;;;;9.54;100.00;100946.66;6043197;23;20078;-71
2023/10/23 07:55:35;;;;;;;5.07;4.80;;;;;;;9.23;100.00;100863.38;6023237;23;20723;-72
2023/10/23 07:58:08;;;;;;;5.47;5.10;;;;;;;9.12;100.00;100830.66;6050032;23;20085;-72
2023/10/23 08:00:35;;;;;;;5.43;5.13;;;;;;;9.14;100.00;100822.69;6044968;23;20031;-71
2023/10/23 08:03:01;;;;;;;5.50;5.20;;;;;;;9.97;100.00;100942.13;6048957;23;20104;-75
2023/10/23 08:05:28;;;;;;;5.60;5.30;;;;;;;10.04;100.00;100966.28;6027255;23;20076;-76
2023/10/23 08:07:54;;;;;;;5.22;4.93;;;;;;;10.16;100.00;100960.47;6048296;23;20054;-75
2023/10/23 08:10:29;;;;;;;5.57;5.28;;;;;;;9.27;100.00;100802.91;6028516;23;20019;-74
2023/10/23 08:12:59;;;;;;;5.45;5.15;;;;;;;10.16;100.00;100944.75;6050624;23;20017;-74
2023/10/23 08:15:28;;;;;;;5.38;5.07;;;;;;;9.91;100.00;100898.69;6049453;23;20081;-75
2023/10/23 08:17:58;;;;;;;5.72;5.22;;;;;;;10.24;100.00;100936.53;6053413;23;20033;-75
2023/10/23 08:20:25;;;;;;;10.02;6.55;;;;;;;10.12;100.00;100896.84;6021951;23;20026;-75
2023/10/23 08:22:53;;;;;;;6.30;5.90;;;;;;;10.27;100.00;100916.25;6045071;23;20515;-75
2023/10/23 08:25:20;;;;;;;6.47;5.97;;;;;;;10.24;100.00;100908.50;6010345;23;20030;-75
2023/10/23 08:27:48;;;;;;;5.40;5.10;;;;;;;9.95;100.00;100853.06;6047495;23;20046;-75
2023/10/23 08:30:15;;;;;;;5.90;5.50;;;;;;;10.26;100.00;100893.56;5999057;23;20030;-75
2023/10/23 08:32:42;;;;;;;6.53;6.03;;;;;;;10.42;100.00;100908.59;6055792;23;20097;-75
2023/10/23 08:35:19;;;;;;;7.45;6.22;;;;;;;8.65;100.00;100599.84;6047491;23;20022;-74
2023/10/23 08:37:45;;;;;;;8.23;5.95;;;;;;;9.91;100.00;100798.25;6030665;23;20108;-74
2023/10/23 08:40:15;;;;;;;5.68;5.18;;;;;;;9.76;100.00;100773.59;6049131;23;20046;-73
2023/10/23 08:42:44;;;;;;;5.82;5.40;;;;;;;10.47;100.00;100877.75;6027985;23;20041;-78
2023/10/23 08:45:17;;;;;;;7.03;6.57;;;;;;;10.06;100.00;100783.53;6045281;23;20018;-74
2023/10/23 08:47:45;;;;;;;6.13;5.60;;;;;;;10.72;100.00;100890.50;6051996;23;20029;-74
2023/10/23 08:50:14;;;;;;;6.20;5.80;;;;;;;10.51;100.00;100855.69;6052642;23;20538;-75
2023/10/23 08:52:55;;;;;;;7.20;6.50;;;;;;;10.81;100.00;100876.94;6053368;23;20034;-74
2023/10/23 08:55:25;;;;;;;8.30;7.53;;;;;;;10.95;100.00;100890.22;6042642;23;20117;-75
2023/10/23 08:57:57;;;;;;;7.78;6.97;;;;;;;10.69;100.00;100851.31;6026041;23;20607;-74
2023/10/23 09:00:26;;;;;;;9.02;7.88;;;;;;;10.36;100.00;100794.31;6044695;23;20019;-75
2023/10/23 09:02:52;;;;;;;8.27;7.47;;;;;;;10.71;100.00;100839.78;6042223;23;20193;-75
2023/10/23 09:05:19;;;;;;;10.55;7.88;;;;;;;10.71;100.00;100841.56;6043720;23;20049;-75
2023/10/23 09:07:47;;;;;;;10.02;8.10;;;;;;;9.82;100.00;100689.41;6016651;23;20026;-75
2023/10/23 09:10:14;;;;;;;7.55;6.85;;;;;;;10.83;100.00;100824.34;6053233;23;20013;-76
2023/10/23 09:12:41;;;;;;;9.18;7.50;;;;;;;10.36;100.00;100742.72;6022609;23;20040;-74
2023/10/23 09:15:20;;;;;;;8.82;8.15;;;;;;;10.89;100.00;100831.91;6040744;23;20595;-74
2023/10/23 09:17:50;;;;;;;8.75;7.15;;;;;;;10.90;100.00;100829.19;6035491;23;20031;-73
2023/10/23 09:20:21;;;;;;;7.20;6.53;;;;;;;11.02;100.00;100843.47;6049977;23;20088;-75
2023/10/23 09:22:54;;;;;;;10.18;9.02;;;;;;;10.60;100.00;100786.97;6022745;23;20050;-74
2023/10/23 09:25:24;;;;;;;9.10;7.25;;;;;;;10.78;100.00;100812.31;6047202;23;20124;-74
2023/10/23 09:27:53;;;;;;;8.32;7.57;;;;;;;10.09;100.00;100712.59;6059898;23;20124;-74
2023/10/23 09:30:21;;;;;;;9.10;7.60;;;;;;;10.86;100.00;100826.81;6032056;23;20530;-75
2023/10/23 09:32:55;;;;;;;8.18;7.38;;;;;;;10.77;100.00;100807.97;6062686;23;20556;-74
2023/10/23 09:35:25;;;;;;;13.20;7.15;;;;;;;10.95;100.00;100815.84;6017854;23;20041;-74
2023/10/23 09:37:51;;;;;;;7.10;6.40;;;;;;;9.99;100.00;100671.09;6003820;23;20029;-74
2023/10/23 09:40:21;;;;;;;7.45;6.78;;;;;;;10.57;100.00;100740.75;6056607;23;20430;-73
2023/10/23 09:42:49;;;;;;;6.22;5.82;;;;;;;10.56;100.00;100727.72;6057870;23;20034;-74
2023/10/23 09:45:23;;;;;;;7.03;6.43;;;;;;;10.96;100.00;100783.38;6037463;23;20212;-75
2023/10/23 09:47:54;;;;;;;6.55;6.05;;;;;;;10.85;100.00;100760.31;6014961;23;20558;-74
2023/10/23 09:50:21;;;;;;;8.63;6.63;;;;;;;10.37;100.00;100681.44;6051102;23;20519;-75
2023/10/23 09:52:47;;;;;;;7.30;6.53;;;;;;;10.86;100.00;100761.16;6032020;23;20100;-74
2023/10/23 09:55:18;;;;;;;7.78;7.15;;;;;;;10.06;100.00;100640.16;6006291;23;20101;-75
2023/10/23 09:57:52;;;;;;;11.25;7.28;;;;;;;9.66;100.00;100581.91;6055012;23;20022;-74
2023/10/23 10:00:20;;;;;;;6.50;6.00;;;;;;;10.81;100.00;100752.69;6048902;23;20018;-74
2023/10/23 10:02:56;;;;;;;8.93;7.13;;;;;;;10.48;100.00;100683.50;6054568;23;20112;-74
2023/10/23 10:05:51;;;;;;;;;;;;;;;;;;;;;
2023/10/23 10:08:21;;;;;;;7.38;6.68;;;;;;;10.82;100.00;100678.25;6063565;23;20093;-75
2023/10/23 10:10:49;;;;;;;10.60;8.48;;;;;;;11.26;100.00;100728.38;6047710;23;20065;-75
2023/10/23 10:13:17;;;;;;;8.07;7.47;;;;;;;11.56;100.00;100735.50;6055318;23;20437;-75
2023/10/23 10:15:55;;;;;;;7.55;6.95;;;;;;;11.59;100.00;100706.44;6047332;23;20057;-75
2023/10/23 10:18:22;;;;;;;10.20;6.28;;;;;;;11.60;100.00;100688.88;6051652;23;20636;-74
2023/10/23 10:20:55;;;;;;;9.07;7.13;;;;;;;11.24;100.00;100619.91;6027119;23;20023;-74
2023/10/23 10:23:26;;;;;;;10.35;9.38;;;;;;;11.74;100.00;100686.28;6038804;23;20053;-75
2023/10/23 10:25:53;;;;;;;7.03;6.53;;;;;;;11.64;100.00;100648.31;6060830;23;20512;-74
2023/10/23 10:28:25;;;;;;;7.43;6.78;;;;;;;11.51;100.00;100632.41;6056678;23;20089;-75
2023/10/23 10:30:55;;;;;;;8.23;7.10;;;;;;;11.22;100.00;100595.50;6007015;23;20109;-75
2023/10/23 10:33:25;;;;;;;9.30;8.35;;;;;;;11.48;100.00;100643.94;6019814;23;20032;-74
2023/10/23 10:36:17;;;;;;;6.72;6.18;;;;;;;11.71;100.00;100654.94;6018231;23;20006;-74
2023/10/23 10:39:05;;;;;;;8.48;7.88;;;;;;;11.42;100.00;100636.41;6055190;23;20634;-74
2023/10/23 10:41:34;;;;;;;7.93;7.18;;;;;;;11.57;100.00;100642.59;6053685;23;20060;-74
2023/10/23 10:44:09;;;;;;;6.63;5.97;;;;;;;11.58;100.00;100637.22;6029637;23;20062;-74
2023/10/23 10:46:41;;;;;;;6.63;6.13;;;;;;;11.65;100.00;100636.88;6030064;23;20022;-74
2023/10/23 10:49:10;;;;;;;8.00;7.40;;;;;;;11.48;100.00;100601.88;6051136;23;20086;-74
2023/10/23 10:51:39;;;;;;;6.93;6.43;;;;;;;11.23;100.00;100565.69;6041766;23;20026;-75
2023/10/23 10:54:11;;;;;;;6.85;6.25;;;;;;;11.37;100.00;100578.88;6056058;23;20502;-75
2023/10/23 10:56:38;;;;;;;7.72;6.05;;;;;;;11.49;100.00;100573.84;6045889;23;20037;-74
2023/10/23 10:59:10;;;;;;;7.30;6.80;;;;;;;11.38;100.00;100549.03;6015776;23;20019;-73
2023/10/23 11:01:37;;;;;;;6.35;5.90;;;;;;;10.96;100.00;100460.41;6044015;23;20026;-75
2023/10/23 11:04:07;;;;;;;6.35;5.85;;;;;;;11.58;100.00;100518.09;6024827;23;20026;-75
2023/10/23 11:06:36;;;;;;;6.35;5.95;;;;;;;11.83;100.00;100538.53;6044428;23;20034;-74
2023/10/23 11:09:06;;;;;;;6.85;6.32;;;;;;;11.77;100.00;100507.34;6060505;23;20085;-75
2023/10/23 11:11:33;;;;;;;6.13;5.72;;;;;;;12.27;100.00;100540.28;6044520;23;20051;-74
2023/10/23 11:14:03;;;;;;;5.95;5.55;;;;;;;12.25;100.00;100491.28;6054472;23;20018;-75
2023/10/23 11:16:30;;;;;;;6.53;6.03;;;;;;;12.13;100.00;100454.31;6052586;23;20018;-75
2023/10/23 11:19:14;;;;;;;5.45;5.15;;;;;;;12.37;100.00;100472.13;6050987;23;20100;-76
2023/10/23 11:21:41;;;;;;;5.60;5.30;;;;;;;12.43;100.00;100460.34;6056720;23;20025;-74
2023/10/23 11:24:11;;;;;;;5.95;5.60;;;;;;;12.25;100.00;100429.00;6053809;23;20049;-74
2023/10/23 11:26:39;;;;;;;5.88;5.45;;;;;;;12.07;100.00;100391.56;6047844;23;20378;-75
2023/10/23 11:29:09;;;;;;;8.82;6.60;;;;;;;12.06;100.00;100339.88;6049455;23;20050;-75
2023/10/23 11:31:39;;;;;;;5.97;5.47;;;;;;;12.74;100.00;100417.94;6060113;23;20043;-74